ESKN

Stockholm Skavsta Airport

Stockholm / Nyköping, Sweden
METAR ESKN 251450Z 28015KT CAVOK 12/M00 Q1026
Observed Flight Rules
Sep-25 @ 14:50 UTC (20 minutes ago) Visual Flight Rules
Wind Visibility Clouds
280° at 15 knots 10,000+ meters
  • Clear skies
Temperatures Readings
Current 12°C / 54°F
Dewpoint 0°C / 32°F
Humidity 44%
Altimeter 30.3" Hg
Pressure 1026 hPa
Elevation 43
METAR ESKN 251450Z 28015KT CAVOK 12/M00 Q1026
Observed Flight Rules
Sep-25 @ 14:50 UTC
(20 minutes ago)
VFR
Wind Visibility
280° at 15 knots 10,000+ meters
Clouds
  • Clear skies
Temperature Dewpoint
12°C / 54°F 0°C / 32°F
Humidity Altimeter Pressure
44% 30.3" Hg 1026 hPa